Time;durP1;ratioP1;P1;durP2;ratioP2;P2;SDS_P1;SDS_P2;PMS_P1;PMS_P2;Temp;Humidity;BMP_temperature;BMP_pressure;BME280_temperature;BME280_humidity;BME280_pressure;Samples;Min_cycle;Max_cycle;Signal;HPM_P1;HPM_P2
2020/12/01 00:01:21;;;;;;;14.15;10.50;;;;;;;-0.59;88.57;99880.69;1640391;85;21203;-66
2020/12/01 00:03:48;;;;;;;13.85;9.60;;;;;;;-0.60;88.56;99890.96;1642885;85;21248;-64
2020/12/01 00:06:15;;;;;;;14.75;10.85;;;;;;;-0.60;88.64;99884.55;1644061;85;21668;-66
2020/12/01 00:08:42;;;;;;;11.70;9.03;;;;;;;-0.60;88.66;99887.11;1648240;85;21245;-64
2020/12/01 00:11:13;;;;;;;13.50;10.28;;;;;;;-0.60;88.62;99880.70;1623645;85;21259;-66
2020/12/01 00:13:41;;;;;;;16.90;10.23;;;;;;;-0.63;88.59;99878.14;1594734;88;21202;-67
2020/12/01 00:16:13;;;;;;;14.28;11.25;;;;;;;-0.63;88.61;99874.30;1621987;86;22808;-66
2020/12/01 00:18:42;;;;;;;15.18;10.40;;;;;;;-0.64;88.56;99873.84;1628580;86;21246;-67
2020/12/01 00:21:19;;;;;;;16.93;11.18;;;;;;;-0.67;88.62;99872.16;1596820;88;21188;-66
2020/12/01 00:23:47;;;;;;;15.93;10.53;;;;;;;-0.69;88.62;99868.30;1618156;87;21697;-64
2020/12/01 00:26:18;;;;;;;15.32;11.30;;;;;;;-0.70;88.62;99867.00;1620348;87;21007;-66
2020/12/01 00:28:50;;;;;;;17.80;10.85;;;;;;;-0.71;88.69;99871.72;1628323;87;21773;-66
2020/12/01 00:31:18;;;;;;;16.75;11.30;;;;;;;-0.71;88.69;99870.00;1619536;86;21378;-65
2020/12/01 00:33:46;;;;;;;16.82;11.05;;;;;;;-0.69;88.76;99874.71;1625559;86;21179;-64
2020/12/01 00:36:16;;;;;;;16.50;11.48;;;;;;;-0.65;88.71;99874.27;1616223;87;21195;-66
2020/12/01 00:38:44;;;;;;;12.90;10.53;;;;;;;-0.62;88.84;99869.58;1619580;86;21641;-64
2020/12/01 00:41:13;;;;;;;13.93;10.25;;;;;;;-0.60;88.71;99871.30;1621366;86;21293;-64
2020/12/01 00:43:40;;;;;;;15.30;11.78;;;;;;;-0.59;88.64;99865.73;1615886;87;21181;-66
2020/12/01 00:46:08;;;;;;;15.55;11.40;;;;;;;-0.59;88.74;99864.02;1624158;86;21628;-67
2020/12/01 00:48:35;;;;;;;16.02;11.70;;;;;;;-0.58;88.61;99863.61;1630023;85;21211;-65
2020/12/01 00:51:01;;;;;;;15.00;11.38;;;;;;;-0.59;88.62;99865.73;1619489;87;21154;-66
2020/12/01 00:53:28;;;;;;;14.98;11.30;;;;;;;-0.60;88.62;99867.45;1633929;85;22198;-66
2020/12/01 00:55:55;;;;;;;18.20;11.95;;;;;;;-0.62;88.63;99861.89;1618685;87;21185;-65
2020/12/01 00:58:23;;;;;;;15.70;11.80;;;;;;;-0.62;88.53;99861.89;1622068;85;21148;-64
2020/12/01 01:00:50;;;;;;;18.48;12.78;;;;;;;-0.64;88.54;99866.16;1618995;85;21284;-64
2020/12/01 01:03:18;;;;;;;17.55;13.53;;;;;;;-0.64;88.60;99868.72;1625064;86;21458;-66
2020/12/01 01:05:45;;;;;;;18.80;14.40;;;;;;;-0.63;88.57;99861.47;1625727;87;21664;-64
2020/12/01 01:08:14;;;;;;;22.17;14.50;;;;;;;-0.65;88.56;99854.20;1597677;88;21609;-64
2020/12/01 01:10:40;;;;;;;20.50;14.20;;;;;;;-0.64;88.62;99858.45;1624701;86;21613;-65
2020/12/01 01:13:08;;;;;;;20.80;14.85;;;;;;;-0.63;88.66;99860.19;1628279;87;21182;-64
2020/12/01 01:15:35;;;;;;;19.95;14.10;;;;;;;-0.63;88.58;99858.47;1621636;86;21123;-65
2020/12/01 01:18:04;;;;;;;;;;;;;;;-0.64;88.67;99858.05;1632684;86;21247;-64
2020/12/01 01:20:31;;;;;;;21.73;14.55;;;;;;;-0.64;88.61;99859.73;1633433;86;20214;-66
2020/12/01 01:22:58;;;;;;;22.10;14.90;;;;;;;-0.65;88.65;99856.76;1622300;86;21300;-65
2020/12/01 01:25:28;;;;;;;16.87;13.48;;;;;;;-0.65;88.68;99852.48;1614391;86;21247;-65
2020/12/01 01:27:56;;;;;;;20.65;15.83;;;;;;;-0.65;88.53;99855.48;1612960;87;21246;-65
2020/12/01 01:30:24;;;;;;;22.67;14.93;;;;;;;-0.66;88.62;99849.94;1620170;86;21639;-65
2020/12/01 01:32:53;;;;;;;18.98;15.15;;;;;;;-0.64;88.73;99848.20;1619691;86;21328;-66
2020/12/01 01:35:21;;;;;;;20.90;15.98;;;;;;;-0.61;88.77;99850.36;1625357;87;21109;-65
2020/12/01 01:37:48;;;;;;;20.00;15.00;;;;;;;-0.60;88.66;99838.39;1634059;86;21076;-65
2020/12/01 01:40:26;;;;;;;23.95;15.80;;;;;;;-0.62;88.69;99840.09;1632276;86;21165;-66
2020/12/01 01:42:53;;;;;;;23.32;16.37;;;;;;;-0.61;88.64;99830.28;1621264;87;21692;-65
2020/12/01 01:45:41;;;;;;;20.90;16.20;;;;;;;-0.61;88.67;99835.41;1622464;86;21166;-65
2020/12/01 01:48:17;;;;;;;;;;;;;;;-0.62;88.64;99839.66;1631859;86;21297;-65
2020/12/01 01:50:55;;;;;;;21.05;15.58;;;;;;;-0.64;88.59;99830.25;1615075;87;20177;-65
2020/12/01 01:53:24;;;;;;;21.07;15.78;;;;;;;-0.66;88.67;99835.39;1619362;87;23055;-65
2020/12/01 01:55:54;;;;;;;;;;;;;;;-0.65;88.78;99827.27;1620430;86;21763;-66
2020/12/01 01:58:26;;;;;;;24.32;17.10;;;;;;;-0.63;88.72;99826.84;1618992;86;20244;-65
2020/12/01 02:00:58;;;;;;;22.05;15.85;;;;;;;-0.64;88.70;99832.81;1626656;87;21207;-68
2020/12/01 02:03:33;;;;;;;20.57;15.43;;;;;;;-0.63;88.77;99829.41;1609705;87;21692;-65
2020/12/01 02:06:04;;;;;;;23.00;17.23;;;;;;;-0.62;88.80;99826.83;1621152;86;22280;-65
2020/12/01 02:08:33;;;;;;;26.07;17.70;;;;;;;-0.60;88.75;99835.82;1609503;87;21682;-65
2020/12/01 02:11:01;;;;;;;22.95;16.80;;;;;;;-0.62;88.71;99838.80;1614575;86;21289;-66
2020/12/01 02:13:53;;;;;;;24.57;17.35;;;;;;;-0.65;88.71;99828.55;1631037;86;21613;-64
2020/12/01 02:16:20;;;;;;;28.07;17.27;;;;;;;-0.62;88.80;99831.11;1560898;90;21228;-69
2020/12/01 02:18:47;;;;;;;22.75;17.48;;;;;;;-0.62;88.77;99820.85;1588833;88;21709;-64
2020/12/01 02:21:35;;;;;;;22.00;17.20;;;;;;;-0.64;88.67;99817.42;1586557;88;21724;-65
2020/12/01 02:24:08;;;;;;;25.88;18.62;;;;;;;-0.69;88.62;99817.02;1594917;88;21659;-66
2020/12/01 02:26:36;;;;;;;26.17;18.55;;;;;;;-0.73;88.58;99824.30;1591002;88;21256;-66
2020/12/01 02:29:14;;;;;;;24.77;18.15;;;;;;;-0.73;88.59;99812.76;1780976;77;27900;-64
2020/12/01 02:31:41;;;;;;;28.02;18.48;;;;;;;-0.77;88.52;99814.88;1758373;80;20993;-64
2020/12/01 02:34:12;;;;;;;26.10;19.20;;;;;;;-0.79;88.46;99819.14;1761772;80;21181;-65
2020/12/01 02:36:41;;;;;;;24.75;17.82;;;;;;;-0.83;88.54;99820.01;1764099;80;21084;-63
2020/12/01 02:39:11;;;;;;;23.05;17.45;;;;;;;-0.86;88.59;99818.73;1767980;80;21029;-65
2020/12/01 02:41:38;;;;;;;26.40;19.35;;;;;;;-0.91;88.50;99816.58;1765621;80;21001;-64
2020/12/01 02:44:07;;;;;;;25.15;20.27;;;;;;;-0.98;88.35;99819.98;1756471;80;21001;-63
2020/12/01 02:46:37;;;;;;;26.85;19.95;;;;;;;-1.08;88.38;99826.81;1758593;79;21072;-63
2020/12/01 02:49:06;;;;;;;26.42;18.20;;;;;;;-1.14;88.47;99825.09;1764426;80;21095;-65
2020/12/01 02:51:35;;;;;;;25.82;19.00;;;;;;;-1.21;88.51;99832.33;1774855;80;21174;-64
2020/12/01 02:54:06;;;;;;;23.65;18.98;;;;;;;-1.26;88.60;99828.93;1780897;80;21008;-63
2020/12/01 02:56:32;;;;;;;25.65;19.40;;;;;;;-1.28;88.61;99829.34;1760477;80;21549;-65
2020/12/01 02:58:59;;;;;;;24.52;19.92;;;;;;;-1.30;88.73;99841.28;1768306;80;21657;-65
2020/12/01 03:01:26;;;;;;;27.07;20.25;;;;;;;-1.29;88.77;99840.42;1759105;80;21088;-64
2020/12/01 03:03:53;;;;;;;29.37;20.45;;;;;;;-1.29;88.78;99835.73;1765167;80;21553;-63
2020/12/01 03:06:21;;;;;;;29.72;20.77;;;;;;;-1.29;88.82;99836.58;1769730;80;21111;-65
2020/12/01 03:08:50;;;;;;;29.90;21.15;;;;;;;-1.26;88.86;99832.77;1771101;80;21145;-65
2020/12/01 03:11:20;;;;;;;28.67;22.15;;;;;;;-1.23;88.91;99830.22;1769987;80;21131;-64
2020/12/01 03:13:47;;;;;;;29.63;21.33;;;;;;;-1.19;89.00;99837.04;1779261;79;21079;-64
2020/12/01 03:16:15;;;;;;;31.70;21.95;;;;;;;-1.16;89.04;99831.92;1759704;80;21143;-64
2020/12/01 03:18:46;;;;;;;32.20;24.07;;;;;;;-1.13;88.96;99834.48;1761656;80;21147;-64
2020/12/01 03:21:16;;;;;;;33.15;22.50;;;;;;;-1.10;88.99;99835.35;1753663;80;21040;-66
2020/12/01 03:23:44;;;;;;;31.85;23.77;;;;;;;-1.06;89.01;99838.36;1756476;80;21649;-63
2020/12/01 03:26:16;;;;;;;33.88;24.95;;;;;;;-1.04;88.97;99839.20;1771165;80;21100;-64
2020/12/01 03:28:46;;;;;;;34.43;24.60;;;;;;;-1.01;89.04;99835.36;1755469;80;21147;-65
2020/12/01 03:31:18;;;;;;;36.20;26.20;;;;;;;-0.98;89.03;99831.11;1766111;80;21178;-66
2020/12/01 03:33:45;;;;;;;33.13;24.85;;;;;;;-0.96;89.04;99836.22;1762483;80;21170;-64
2020/12/01 03:36:12;;;;;;;34.53;25.55;;;;;;;-0.94;89.08;99837.09;1760115;80;21306;-65
2020/12/01 03:38:39;;;;;;;38.15;26.30;;;;;;;-0.91;89.09;99838.38;1772947;80;21246;-64
2020/12/01 03:41:06;;;;;;;33.63;25.08;;;;;;;-0.88;89.03;99838.80;1755199;80;21051;-67
2020/12/01 03:43:33;;;;;;;34.73;25.43;;;;;;;-0.87;89.01;99834.94;1755394;80;20993;-65
2020/12/01 03:46:04;;;;;;;33.02;24.52;;;;;;;-0.84;89.01;99833.69;1769971;80;21033;-65
2020/12/01 03:48:35;;;;;;;36.53;25.17;;;;;;;-0.84;88.88;99833.69;1768288;80;23175;-66
2020/12/01 03:51:03;;;;;;;38.02;27.05;;;;;;;-0.87;88.78;99836.22;1760638;80;21213;-65
2020/12/01 03:53:30;;;;;;;37.42;26.60;;;;;;;-0.94;88.73;99833.24;1763695;80;21013;-65
2020/12/01 03:55:57;;;;;;;37.00;26.82;;;;;;;-0.99;88.72;99838.78;1755169;80;21656;-65
2020/12/01 03:58:23;;;;;;;36.68;25.88;;;;;;;-1.06;88.70;99831.95;1760837;80;21021;-65
2020/12/01 04:00:50;;;;;;;34.85;26.20;;;;;;;-1.15;88.75;99837.89;1763052;80;21196;-66
2020/12/01 04:03:19;;;;;;;38.83;28.47;;;;;;;-1.23;88.78;99832.77;1771887;80;21032;-66
2020/12/01 04:05:47;;;;;;;41.28;28.73;;;;;;;-1.29;88.84;99847.25;1772794;79;21048;-65
2020/12/01 04:08:16;;;;;;;43.35;28.75;;;;;;;-1.36;88.87;99847.67;1773629;80;21055;-66
2020/12/01 04:10:44;;;;;;;43.63;31.30;;;;;;;-1.40;88.99;99852.34;1761044;80;21604;-65
2020/12/01 04:13:11;;;;;;;43.33;29.82;;;;;;;-1.41;89.07;99853.20;1754511;80;21255;-66
2020/12/01 04:15:38;;;;;;;54.40;35.25;;;;;;;-1.42;89.08;99854.91;1758844;80;21017;-67
2020/12/01 04:18:05;;;;;;;51.73;33.58;;;;;;;-1.42;89.11;99851.50;1763361;80;21648;-66
2020/12/01 04:20:31;;;;;;;47.67;32.55;;;;;;;-1.43;89.08;99849.77;1756601;80;21123;-66
2020/12/01 04:22:58;;;;;;;45.55;31.57;;;;;;;-1.44;89.07;99855.33;1756192;80;21021;-66
2020/12/01 04:25:25;;;;;;;43.83;28.35;;;;;;;-1.46;89.04;99863.84;1753223;80;21589;-65
2020/12/01 04:27:56;;;;;;;43.33;29.00;;;;;;;-1.47;89.07;99855.75;1759299;80;21234;-65
2020/12/01 04:30:25;;;;;;;43.20;30.37;;;;;;;-1.47;89.12;99858.31;1772703;80;20988;-67
2020/12/01 04:32:54;;;;;;;44.95;29.80;;;;;;;-1.45;89.15;99863.02;1765745;79;21621;-65
2020/12/01 04:35:26;;;;;;;45.33;31.12;;;;;;;-1.46;89.14;99857.45;1765788;80;21154;-64
2020/12/01 04:37:57;;;;;;;49.63;33.23;;;;;;;-1.45;89.14;99852.78;1769596;80;21322;-64
2020/12/01 04:40:27;;;;;;;43.30;30.55;;;;;;;-1.47;89.12;99855.75;1773350;80;21557;-65
2020/12/01 04:43:02;;;;;;;40.60;27.75;;;;;;;-1.45;89.17;99851.50;1774340;80;21170;-65
2020/12/01 04:45:32;;;;;;;49.27;33.10;;;;;;;-1.43;89.20;99850.66;1771329;80;21513;-66
2020/12/01 04:48:08;;;;;;;45.17;31.42;;;;;;;-1.41;89.19;99855.77;1771938;80;21028;-65
2020/12/01 04:50:40;;;;;;;45.33;32.65;;;;;;;-1.41;89.11;99853.20;1773166;80;21296;-65
2020/12/01 04:53:52;;;;;;;47.98;31.52;;;;;;;-1.42;89.05;99848.94;1769369;80;21047;-65
2020/12/01 04:56:45;;;;;;;50.40;32.10;;;;;;;-1.42;89.01;99856.63;1771147;80;21008;-67
2020/12/01 04:59:48;;;;;;;46.40;31.68;;;;;;;-1.47;89.04;99848.92;1767122;78;21992;-66
2020/12/01 05:02:40;;;;;;;44.98;31.82;;;;;;;-1.49;89.03;99851.04;1773399;80;21123;-65
2020/12/01 05:05:53;;;;;;;48.48;34.03;;;;;;;-1.54;89.04;99846.32;1773423;79;21601;-66
2020/12/01 05:08:46;;;;;;;49.23;33.40;;;;;;;-1.58;89.08;99842.47;1780289;80;21020;-65
2020/12/01 05:11:34;;;;;;;49.30;33.20;;;;;;;-1.61;89.14;99842.46;1780026;80;20977;-65
2020/12/01 05:14:07;;;;;;;46.40;33.38;;;;;;;-1.65;89.18;99844.59;1768351;80;21170;-66
2020/12/01 05:16:42;;;;;;;50.60;33.63;;;;;;;-1.65;89.28;99849.72;1771653;80;21181;-65
2020/12/01 05:19:38;;;;;;;51.35;33.98;;;;;;;-1.66;89.24;99850.97;1765064;80;21204;-66
2020/12/01 05:22:08;;;;;;;52.83;32.83;;;;;;;-1.69;89.20;99855.66;1773621;80;22016;-67
2020/12/01 05:24:48;;;;;;;55.28;34.15;;;;;;;-1.71;89.19;99850.97;1772936;78;21044;-65
2020/12/01 05:27:34;;;;;;;54.18;34.92;;;;;;;-1.72;89.15;99849.24;1786276;79;21184;-66
2020/12/01 05:30:24;;;;;;;50.83;34.70;;;;;;;-1.74;89.18;99852.21;1773942;79;21683;-66
2020/12/01 05:33:07;;;;;;;51.15;34.03;;;;;;;-1.76;89.21;99848.81;1765315;80;22682;-65
2020/12/01 05:35:35;;;;;;;55.50;38.20;;;;;;;-1.79;89.15;99857.76;1771314;80;21032;-65
2020/12/01 05:38:16;;;;;;;58.23;37.73;;;;;;;-1.84;89.16;99863.27;1775032;80;21031;-66
2020/12/01 05:40:57;;;;;;;60.23;39.25;;;;;;;-1.86;89.18;99870.08;1769977;80;21237;-67
2020/12/01 05:43:38;;;;;;;60.45;40.10;;;;;;;-1.89;89.24;99872.63;1771324;80;21193;-67
2020/12/01 05:46:22;;;;;;;61.58;37.70;;;;;;;-1.90;89.38;99870.92;1771636;79;21202;-67
2020/12/01 05:49:36;;;;;;;69.03;43.38;;;;;;;-1.91;89.42;99866.63;1764411;79;21019;-65
2020/12/01 05:52:17;;;;;;;58.25;37.05;;;;;;;-1.91;89.46;99869.19;1769742;80;21186;-66
2020/12/01 05:54:49;;;;;;;55.70;36.20;;;;;;;-1.92;89.46;99876.02;1771809;79;21069;-66
2020/12/01 05:57:23;;;;;;;56.33;36.10;;;;;;;-1.94;89.49;99876.86;1780139;80;21004;-66
2020/12/01 06:00:07;;;;;;;57.90;36.35;;;;;;;-1.94;89.48;99876.86;1780820;79;21190;-67
2020/12/01 06:02:51;;;;;;;59.10;35.03;;;;;;;-1.96;89.54;99873.42;1680646;84;21338;-67
2020/12/01 06:05:27;;;;;;;52.08;35.38;;;;;;;-1.94;89.54;99864.06;1826634;77;22366;-64
2020/12/01 06:07:59;;;;;;;56.98;35.10;;;;;;;-1.99;89.48;99875.97;1806882;78;21017;-64
2020/12/01 06:10:48;;;;;;;49.40;34.27;;;;;;;-2.03;89.45;99881.06;1803154;78;21152;-66
2020/12/01 06:13:35;;;;;;;52.62;34.92;;;;;;;-2.05;89.58;99887.88;1776708;78;21012;-65
2020/12/01 06:16:10;;;;;;;47.03;33.45;;;;;;;-2.05;89.55;99890.43;1689554;84;21191;-66
2020/12/01 06:19:20;;;;;;;53.13;33.65;;;;;;;-2.06;89.66;99893.84;1762888;80;21089;-67
2020/12/01 06:22:11;;;;;;;48.35;31.80;;;;;;;-2.04;89.81;99889.60;1745836;80;21013;-64
2020/12/01 06:25:22;;;;;;;45.10;31.75;;;;;;;-2.02;89.79;99892.16;1745825;80;21421;-65
2020/12/01 06:28:28;;;;;;;51.85;34.25;;;;;;;-2.04;89.80;99899.84;1752714;81;21102;-66
2020/12/01 06:31:21;;;;;;;51.28;32.50;;;;;;;-2.01;89.82;99903.27;1753801;80;24318;-65
2020/12/01 06:34:33;;;;;;;50.63;36.05;;;;;;;-2.04;89.80;99893.87;1752228;80;21242;-65
2020/12/01 06:37:37;;;;;;;52.13;33.53;;;;;;;-2.06;89.77;99890.01;1744987;80;21061;-66
2020/12/01 06:40:27;;;;;;;48.95;30.97;;;;;;;-2.06;89.90;99888.73;1754796;80;21226;-65
2020/12/01 06:43:09;;;;;;;53.17;34.80;;;;;;;-2.06;89.98;99893.84;1748324;80;21071;-65
2020/12/01 06:45:47;;;;;;;51.55;34.58;;;;;;;-2.04;89.94;99892.16;1750538;80;20996;-65
2020/12/01 06:48:20;;;;;;;48.23;32.45;;;;;;;-2.05;89.82;99899.38;1752425;81;21636;-67
2020/12/01 06:50:56;;;;;;;50.45;33.73;;;;;;;-2.07;89.88;99898.54;1748618;81;21546;-65
2020/12/01 06:53:31;;;;;;;52.17;34.73;;;;;;;-2.05;89.99;99898.11;1798499;78;22109;-66
2020/12/01 06:56:06;;;;;;;52.30;34.45;;;;;;;-2.01;89.99;99910.95;1796228;78;21096;-65
2020/12/01 06:58:49;;;;;;;50.45;34.70;;;;;;;-2.00;89.93;99915.20;1808237;78;21009;-66
2020/12/01 07:01:24;;;;;;;49.55;34.38;;;;;;;-1.98;89.93;99910.97;1800160;77;21234;-65
2020/12/01 07:04:14;;;;;;;52.55;35.85;;;;;;;-1.93;90.01;99917.83;1803237;78;21233;-67
2020/12/01 07:06:55;;;;;;;50.50;35.63;;;;;;;-1.86;90.10;99918.70;1746066;80;21472;-64
2020/12/01 07:09:44;;;;;;;54.65;35.83;;;;;;;-1.71;90.11;99913.70;1815173;78;22884;-64
2020/12/01 07:12:32;;;;;;;54.38;36.88;;;;;;;-1.67;90.10;99924.37;1774551;80;21076;-64
2020/12/01 07:15:16;;;;;;;55.80;35.17;;;;;;;-1.59;90.05;99926.55;1768023;80;22140;-67
2020/12/01 07:17:54;;;;;;;57.00;36.38;;;;;;;-1.50;90.02;99927.45;1774170;80;21049;-65
2020/12/01 07:20:35;;;;;;;51.30;35.98;;;;;;;-1.43;90.01;99924.93;1786568;80;21001;-66
2020/12/01 07:23:32;;;;;;;51.20;34.10;;;;;;;-1.36;90.00;99923.23;1779302;80;21077;-67
2020/12/01 07:26:29;;;;;;;54.13;34.75;;;;;;;-1.32;89.93;99924.95;1783959;80;21044;-66
2020/12/01 07:29:20;;;;;;;50.05;32.67;;;;;;;-1.29;89.88;99927.52;1725268;81;22439;-66
2020/12/01 07:31:47;;;;;;;51.45;34.88;;;;;;;-1.26;89.84;99930.13;1729678;81;21060;-66
2020/12/01 07:34:30;;;;;;;50.48;32.65;;;;;;;-1.22;89.85;99939.52;1734602;81;21613;-65
2020/12/01 07:37:19;;;;;;;52.67;33.25;;;;;;;-1.18;89.83;99941.23;1727905;81;21244;-65
2020/12/01 07:39:59;;;;;;;70.95;44.18;;;;;;;-1.14;89.79;99942.97;1735548;81;21207;-67
2020/12/01 07:42:31;;;;;;;74.92;44.00;;;;;;;-1.10;89.77;99942.98;1735784;81;21216;-66
2020/12/01 07:44:58;;;;;;;52.30;35.80;;;;;;;-1.10;89.62;99935.29;1692903;83;21612;-67
2020/12/01 07:47:28;;;;;;;93.33;59.00;;;;;;;-1.13;89.60;99939.55;1692703;83;21311;-65
2020/12/01 07:50:09;;;;;;;113.05;63.68;;;;;;;-1.10;89.60;99946.39;1696235;83;21199;-66
2020/12/01 07:52:43;;;;;;;126.92;66.57;;;;;;;-1.11;89.60;99946.40;1671602;84;21293;-66
2020/12/01 07:55:24;;;;;;;171.13;99.65;;;;;;;-1.09;89.58;99954.92;1667500;84;21664;-64
2020/12/01 07:58:05;;;;;;;63.90;45.95;;;;;;;-1.09;89.55;99946.84;1666371;85;21253;-66
2020/12/01 08:00:32;;;;;;;51.13;35.50;;;;;;;-1.09;89.51;99952.36;1664378;84;21239;-66
2020/12/01 08:03:16;;;;;;;64.45;44.38;;;;;;;-1.09;89.46;99947.23;1668480;84;21239;-65
2020/12/01 08:05:43;;;;;;;62.53;39.63;;;;;;;-1.11;89.48;99951.53;1690031;82;21027;-66
2020/12/01 08:08:18;;;;;;;65.72;44.85;;;;;;;-1.10;89.44;99954.51;1709229;82;22182;-66
2020/12/01 08:10:48;;;;;;;66.37;46.13;;;;;;;-1.13;89.41;99958.77;1701948;82;21016;-67
2020/12/01 08:13:16;;;;;;;72.58;51.48;;;;;;;-1.15;89.39;99959.20;1703594;83;21044;-65
2020/12/01 08:15:44;;;;;;;51.00;36.03;;;;;;;-1.15;89.48;99957.92;1702896;83;21042;-65
2020/12/01 08:18:16;;;;;;;51.70;33.02;;;;;;;-1.14;89.44;99963.47;1703922;83;21030;-65
2020/12/01 08:20:44;;;;;;;48.42;33.53;;;;;;;-1.15;89.38;99963.05;1706276;83;22593;-65
2020/12/01 08:23:21;;;;;;;50.10;33.78;;;;;;;-1.18;89.42;99962.16;1702719;83;21602;-66
2020/12/01 08:26:20;;;;;;;46.35;30.10;;;;;;;-1.19;89.42;99963.87;1702860;83;21146;-66
2020/12/01 08:29:10;;;;;;;47.62;31.27;;;;;;;-1.19;89.44;99963.87;1698940;83;21168;-65
2020/12/01 08:32:05;;;;;;;46.80;28.23;;;;;;;-1.16;89.51;99967.72;1703992;83;21180;-67
2020/12/01 08:34:51;;;;;;;48.50;30.80;;;;;;;-1.09;89.55;99963.50;1707687;83;21171;-67
2020/12/01 08:37:38;;;;;;;53.30;34.40;;;;;;;-1.05;89.47;99972.05;1699853;83;21090;-65
2020/12/01 08:40:28;;;;;;;47.13;29.27;;;;;;;-1.02;89.45;99973.34;1701403;83;21077;-66
2020/12/01 08:43:41;;;;;;;54.55;34.85;;;;;;;-0.96;89.35;99965.66;1833639;76;23352;-63
2020/12/01 08:46:21;;;;;;;48.33;33.18;;;;;;;-0.99;89.35;99965.22;1807754;77;21028;-65
2020/12/01 08:49:06;;;;;;;49.25;33.02;;;;;;;-0.99;89.43;99966.94;1807765;77;21197;-65
2020/12/01 08:51:33;;;;;;;52.75;35.40;;;;;;;-0.96;89.41;99964.38;1803584;77;21362;-65
2020/12/01 08:54:14;;;;;;;53.85;36.08;;;;;;;-0.87;89.57;99977.22;1801094;77;21033;-65
2020/12/01 08:56:55;;;;;;;56.20;34.75;;;;;;;-0.80;89.46;99976.40;1807771;77;20969;-66
2020/12/01 08:59:48;;;;;;;55.00;34.75;;;;;;;-0.77;89.32;99990.94;1801009;77;21060;-65
2020/12/01 09:02:18;;;;;;;54.70;34.48;;;;;;;-0.75;89.34;99990.09;1800667;77;21260;-66
2020/12/01 09:04:45;;;;;;;53.68;32.53;;;;;;;-0.73;89.28;99992.24;1812572;77;21667;-65
2020/12/01 09:07:27;;;;;;;49.77;32.88;;;;;;;-0.70;89.25;99992.25;1808468;77;20967;-63
2020/12/01 09:10:08;;;;;;;50.55;33.42;;;;;;;-0.69;89.13;99992.67;1801379;77;21119;-66
2020/12/01 09:15:34;;;;;;;51.30;33.53;;;;;;;-0.56;89.22;99987.55;1793390;77;22048;-63
2020/12/01 09:21:03;;;;;;;54.00;33.05;;;;;;;-0.59;89.04;99995.25;1761412;80;22576;-65
2020/12/01 09:26:21;;;;;;;50.65;32.50;;;;;;;-0.60;88.95;99993.55;1845082;76;22772;-64
2020/12/01 09:28:51;;;;;;;55.20;31.75;;;;;;;-0.64;88.90;99999.50;1811816;77;21546;-64
2020/12/01 09:31:20;;;;;;;51.18;31.50;;;;;;;-0.65;89.06;99993.52;1815484;77;21197;-66
2020/12/01 09:33:46;;;;;;;49.53;33.75;;;;;;;-0.59;88.87;99997.38;1811719;79;20950;-65
2020/12/01 09:36:20;;;;;;;60.55;34.18;;;;;;;-0.64;88.81;99995.26;1799689;77;20989;-66
2020/12/01 09:38:47;;;;;;;51.58;32.20;;;;;;;-0.66;88.76;100003.80;1810499;79;21001;-65
2020/12/01 09:41:18;;;;;;;50.60;32.33;;;;;;;-0.70;88.92;100003.79;1807796;77;21009;-66
2020/12/01 09:43:51;;;;;;;53.28;34.10;;;;;;;-0.68;88.84;100014.03;1816085;77;22161;-66
2020/12/01 09:46:15;;;;;;;55.45;33.80;;;;;;;-0.65;89.00;100013.19;1812364;77;21065;-66
2020/12/01 09:48:46;;;;;;;59.93;35.50;;;;;;;-0.59;89.01;100015.77;1807954;77;21028;-66
2020/12/01 09:51:11;;;;;;;52.43;35.88;;;;;;;-0.55;88.94;100018.78;1807272;79;21013;-66
2020/12/01 10:09:43;;;;;;;54.10;36.10;;;;;;;-0.34;88.56;100017.53;1753568;80;21199;-65
2020/12/01 10:25:58;;;;;;;53.90;35.50;;;;;;;-0.24;88.81;100028.25;1780230;78;21545;-64
2020/12/01 10:36:29;;;;;;;55.17;33.75;;;;;;;-0.39;88.44;100030.80;1788081;79;21001;-66
2020/12/01 10:38:59;;;;;;;54.98;35.55;;;;;;;-0.40;88.57;100030.34;1797192;79;26837;-64
2020/12/01 10:41:30;;;;;;;57.48;35.83;;;;;;;-0.40;88.68;100043.17;1791703;79;21076;-66
2020/12/01 10:43:57;;;;;;;56.53;34.08;;;;;;;-0.39;88.55;100037.22;1800422;77;21561;-67
2020/12/01 10:46:24;;;;;;;63.30;36.60;;;;;;;-0.41;88.47;100035.06;1806293;78;21021;-67
2020/12/01 10:48:51;;;;;;;58.28;35.28;;;;;;;-0.41;88.60;100033.78;1791966;79;21366;-65
2020/12/01 10:51:18;;;;;;;57.47;36.73;;;;;;;-0.39;88.58;100038.50;1789900;77;22153;-67
2020/12/01 10:53:45;;;;;;;53.58;36.65;;;;;;;-0.39;88.42;100042.34;1793047;79;21309;-66
2020/12/01 10:56:12;;;;;;;58.75;37.50;;;;;;;-0.39;88.58;100042.34;1798941;79;21005;-67
2020/12/01 10:58:39;;;;;;;54.60;37.85;;;;;;;-0.39;88.47;100046.19;1766311;79;21048;-67
2020/12/01 11:01:06;;;;;;;56.25;37.38;;;;;;;-0.45;88.34;100052.56;1803809;79;21685;-68
2020/12/01 11:03:33;;;;;;;59.57;38.47;;;;;;;-0.48;88.46;100060.25;1797253;79;21199;-66
2020/12/01 11:06:00;;;;;;;61.13;39.40;;;;;;;-0.46;88.61;100066.25;1802599;79;21228;-65
2020/12/01 11:08:27;;;;;;;62.85;40.83;;;;;;;-0.44;88.66;100063.71;1795681;79;21104;-66
2020/12/01 11:10:54;;;;;;;66.45;40.65;;;;;;;-0.43;88.59;100063.70;1799325;79;21144;-67
2020/12/01 11:13:21;;;;;;;61.37;39.90;;;;;;;-0.43;88.66;100066.27;1799565;79;21175;-65
2020/12/01 11:15:48;;;;;;;63.25;41.35;;;;;;;-0.43;88.60;100061.13;1801350;79;22575;-67
2020/12/01 11:18:15;;;;;;;62.65;39.15;;;;;;;-0.42;88.66;100065.43;1795087;77;21157;-65
2020/12/01 11:20:42;;;;;;;52.83;34.30;;;;;;;-0.41;88.56;100070.98;1804315;79;21210;-65
2020/12/01 11:23:09;;;;;;;51.92;33.73;;;;;;;-0.39;88.60;100070.56;1796158;79;21060;-64
2020/12/01 11:25:36;;;;;;;55.50;37.93;;;;;;;-0.40;88.42;100068.83;1798653;79;21024;-64
2020/12/01 11:28:03;;;;;;;56.80;36.05;;;;;;;-0.41;88.23;100073.55;1801774;77;22571;-67
2020/12/01 11:30:30;;;;;;;55.23;35.92;;;;;;;-0.50;88.06;100082.50;1798243;78;21171;-65
2020/12/01 11:32:59;;;;;;;61.68;37.10;;;;;;;-0.57;88.18;100080.75;1804510;79;21594;-65
2020/12/01 11:35:26;;;;;;;58.70;37.40;;;;;;;-0.64;88.16;100086.70;1803289;79;21590;-65
2020/12/01 11:37:53;;;;;;;60.67;37.83;;;;;;;-0.70;88.25;100083.69;1799264;79;21032;-66
2020/12/01 11:40:20;;;;;;;72.10;40.05;;;;;;;-0.71;88.39;100078.98;1788307;79;22529;-64
2020/12/01 11:42:48;;;;;;;63.95;39.70;;;;;;;-0.70;88.36;100080.72;1798708;77;21929;-66
2020/12/01 11:45:15;;;;;;;71.80;46.53;;;;;;;-0.66;88.46;100085.86;1793105;79;21198;-64
2020/12/01 11:47:43;;;;;;;59.38;37.80;;;;;;;-0.60;88.55;100088.44;1795944;78;28390;-66
2020/12/01 11:50:11;;;;;;;50.45;33.78;;;;;;;-0.56;88.45;100095.28;1800580;79;20973;-64
2020/12/01 11:52:38;;;;;;;51.18;32.88;;;;;;;-0.54;88.40;100096.16;1804275;77;21141;-65
2020/12/01 11:55:06;;;;;;;;;;;;;;;-0.53;88.40;100087.63;1802945;77;21182;-66
2020/12/01 11:57:33;;;;;;;53.17;34.05;;;;;;;-0.48;88.33;100096.17;1792605;79;20176;-65
2020/12/01 12:00:00;;;;;;;51.58;33.88;;;;;;;-0.46;88.47;100097.04;1804084;79;21041;-64
2020/12/01 12:02:27;;;;;;;59.25;38.05;;;;;;;-0.44;88.23;100090.22;1805781;77;21139;-66
2020/12/01 12:04:54;;;;;;;60.17;38.67;;;;;;;-0.47;88.19;100093.63;1811290;79;21191;-66
2020/12/01 12:07:21;;;;;;;63.15;36.73;;;;;;;-0.57;87.94;100087.16;1805405;79;21143;-66
2020/12/01 12:09:48;;;;;;;54.15;36.05;;;;;;;-0.71;87.90;100094.37;1798063;77;21133;-65
2020/12/01 12:12:17;;;;;;;58.05;36.73;;;;;;;-0.81;88.21;100104.17;1803762;78;21166;-64
2020/12/01 12:14:44;;;;;;;56.60;36.93;;;;;;;-0.86;88.40;100098.16;1802483;79;21789;-66
2020/12/01 12:17:10;;;;;;;56.10;35.13;;;;;;;-0.89;88.42;100093.02;1803298;79;21668;-66
2020/12/01 12:19:37;;;;;;;62.55;38.48;;;;;;;-1.03;88.50;100108.75;1797608;79;21179;-66
2020/12/01 12:22:08;;;;;;;59.75;38.05;;;;;;;-1.03;88.50;100108.75;1764074;79;21032;-65
2020/12/01 12:24:35;;;;;;;59.30;36.85;;;;;;;-1.00;88.60;100113.47;1737050;82;20985;-66
2020/12/01 12:27:02;;;;;;;58.83;34.92;;;;;;;-1.00;88.65;100119.02;1735429;82;21179;-65
2020/12/01 12:29:29;;;;;;;55.30;34.30;;;;;;;-0.96;88.58;100125.86;1728488;82;21807;-64
2020/12/01 12:31:56;;;;;;;54.15;33.60;;;;;;;-0.96;88.49;100118.17;1735087;82;21625;-65
2020/12/01 12:34:23;;;;;;;57.23;35.00;;;;;;;-0.96;88.44;100115.61;1732076;82;21176;-66